Time;durP1;ratioP1;P1;durP2;ratioP2;P2;SDS_P1;SDS_P2;PMS_P1;PMS_P2;Temp;Humidity;BMP_temperature;BMP_pressure;BME280_temperature;BME280_humidity;BME280_pressure;Samples;Min_cycle;Max_cycle;Signal;HPM_P1;HPM_P2
2022/12/18 00:01:20;;;;;;;;;14.00;10.50;;;;;19.53;31.86;102221.88;5033695;28;45340;-68
2022/12/18 00:03:46;;;;;;;;;9.75;8.50;;;;;19.64;31.82;102240.31;5051090;28;45448;-68
2022/12/18 00:06:11;;;;;;;;;12.00;10.25;;;;;19.65;31.78;102241.97;5053631;28;46993;-68
2022/12/18 00:08:37;;;;;;;;;8.00;6.00;;;;;19.64;31.67;102234.19;5053870;28;45431;-68
2022/12/18 00:11:08;;;;;;;;;11.75;9.50;;;;;19.63;31.98;102225.44;5035888;27;45328;-69
2022/12/18 00:13:34;;;;;;;;;11.50;11.50;;;;;19.64;31.81;102234.19;5053717;28;45328;-68
2022/12/18 00:16:05;;;;;;;;;12.00;10.50;;;;;19.63;31.88;102243.91;5053656;28;45401;-68
2022/12/18 00:18:32;;;;;;;;;10.00;10.00;;;;;19.56;31.88;102225.13;5053324;28;45380;-68
2022/12/18 00:21:06;;;;;;;;;14.25;13.75;;;;;19.63;31.74;102238.63;5053709;28;45377;-68
2022/12/18 00:23:32;;;;;;;;;9.50;9.25;;;;;19.54;31.77;102228.84;5053739;28;45357;-68
2022/12/18 00:26:04;;;;;;;;;12.75;11.00;;;;;19.62;31.82;102235.16;5053312;28;46378;-68
2022/12/18 00:28:29;;;;;;;;;10.50;10.50;;;;;19.61;31.87;102236.13;5053502;28;45291;-68
2022/12/18 00:31:00;;;;;;;;;12.25;11.25;;;;;19.61;32.03;102238.78;5053224;28;45309;-68
2022/12/18 00:33:26;;;;;;;;;15.25;11.50;;;;;19.61;31.78;102236.13;5053495;28;45334;-68
2022/12/18 00:35:51;;;;;;;;;9.75;9.75;;;;;19.58;31.67;102233.75;5035302;28;46124;-68
2022/12/18 00:38:16;;;;;;;;;12.00;10.75;;;;;19.63;31.77;102241.28;5053465;28;45387;-68
2022/12/18 00:40:42;;;;;;;;;13.00;9.00;;;;;19.62;31.84;102240.44;5053681;27;45359;-69
2022/12/18 00:43:07;;;;;;;;;12.75;11.50;;;;;19.60;31.82;102238.88;5053390;28;45309;-68
2022/12/18 00:45:32;;;;;;;;;12.50;12.00;;;;;19.62;31.95;102247.53;5052946;28;45317;-69
2022/12/18 00:47:58;;;;;;;;;10.75;9.00;;;;;19.64;31.60;102247.41;5053337;28;45380;-68
2022/12/18 00:50:24;;;;;;;;;14.25;13.50;;;;;19.60;31.83;102234.44;5053499;28;45340;-68
2022/12/18 00:52:50;;;;;;;;;9.00;9.00;;;;;19.60;31.49;102236.25;5053243;28;45485;-68
2022/12/18 00:55:16;;;;;;;;;13.50;12.50;;;;;19.62;31.52;102248.34;5039058;28;45265;-68
2022/12/18 00:57:41;;;;;;;;;13.50;9.00;;;;;19.65;31.65;102241.97;5033058;28;45281;-69
2022/12/18 01:00:10;;;;;;;;;11.25;9.00;;;;;19.65;31.64;102244.59;5033085;28;45293;-68
2022/12/18 01:02:36;;;;;;;;;10.00;9.75;;;;;19.64;31.22;102240.31;5041088;28;45324;-69
2022/12/18 01:05:01;;;;;;;;;11.75;10.00;;;;;19.61;31.76;102232.66;5052847;28;46176;-68
2022/12/18 01:07:27;;;;;;;;;11.75;11.00;;;;;19.62;31.92;102237.78;5053026;28;45268;-68
2022/12/18 01:09:52;;;;;;;;;14.75;12.25;;;;;19.63;31.76;102230.72;5053391;28;45632;-68
2022/12/18 01:12:18;;;;;;;;;10.00;9.25;;;;;19.63;31.57;102222.78;5053057;28;45287;-68
2022/12/18 01:14:43;;;;;;;;;12.75;9.75;;;;;19.62;31.83;102221.94;5052643;28;45918;-68
2022/12/18 01:17:08;;;;;;;;;13.00;10.25;;;;;19.62;31.77;102219.31;5052850;28;45352;-68
2022/12/18 01:19:35;;;;;;;;;11.00;10.50;;;;;19.58;31.91;102212.63;5053097;28;45787;-69
2022/12/18 01:22:00;;;;;;;;;9.00;9.00;;;;;19.62;31.50;102219.31;5053030;28;45363;-68
2022/12/18 01:24:25;;;;;;;;;10.75;10.00;;;;;19.61;31.75;102215.00;5052795;28;45344;-68
2022/12/18 01:26:50;;;;;;;;;11.00;8.25;;;;;19.61;31.60;102209.72;5052977;28;45253;-68
2022/12/18 01:29:16;;;;;;;;;12.00;9.75;;;;;19.60;31.75;102202.75;5052425;28;45287;-68
2022/12/18 01:31:41;;;;;;;;;13.50;12.50;;;;;19.60;31.60;102192.19;5052790;28;45248;-68
2022/12/18 01:34:06;;;;;;;;;10.50;9.50;;;;;19.54;31.41;102174.25;5052532;28;45946;-68
2022/12/18 01:36:34;;;;;;;;;11.25;9.75;;;;;19.60;31.67;102196.63;5052795;28;45293;-68
2022/12/18 01:39:02;;;;;;;;;13.75;12.00;;;;;19.49;31.65;102166.72;5054381;28;45430;-68
2022/12/18 01:42:01;;;;;;;;;13.50;10.00;;;;;19.60;31.66;102181.63;5055691;28;45432;-68
2022/12/18 01:44:52;;;;;;;;;8.75;8.75;;;;;19.59;31.92;102173.88;5054846;28;45990;-68
2022/12/18 01:47:50;;;;;;;;;12.50;11.25;;;;;19.59;31.88;102172.06;5055570;28;45399;-68
2022/12/18 01:50:25;;;;;;;;;11.50;10.75;;;;;19.46;31.52;102158.22;5055617;28;45244;-68
2022/12/18 01:53:01;;;;;;;;;13.00;11.25;;;;;19.58;31.67;102166.91;5055312;28;45373;-68
2022/12/18 01:55:31;;;;;;;;;15.50;11.00;;;;;19.58;31.52;102158.97;5039548;28;47201;-68
2022/12/18 01:57:59;;;;;;;;;11.75;11.25;;;;;19.57;31.61;102154.69;5034956;28;45385;-68
2022/12/18 02:00:25;;;;;;;;;8.25;8.00;;;;;19.55;31.81;102148.66;5035367;28;45421;-68
2022/12/18 02:02:51;;;;;;;;;9.50;9.50;;;;;19.57;31.68;102150.22;5045180;28;45222;-68
2022/12/18 02:05:24;;;;;;;;;9.75;9.00;;;;;19.58;31.48;102145.78;5055265;28;45251;-68
2022/12/18 02:08:02;;;;;;;;;12.25;9.00;;;;;19.57;31.64;102150.22;5055205;28;45322;-68
2022/12/18 02:10:27;;;;;;;;;11.25;11.25;;;;;19.57;31.82;102146.75;5055324;28;45408;-68
2022/12/18 02:12:55;;;;;;;;;13.75;11.25;;;;;19.57;31.54;102149.41;5054867;28;45331;-68
2022/12/18 02:15:23;;;;;;;;;12.50;10.25;;;;;19.57;31.58;102152.84;5055127;28;47302;-68
2022/12/18 02:18:07;;;;;;;;;11.00;10.50;;;;;19.57;31.78;102157.31;5054627;28;45417;-68
2022/12/18 02:20:37;;;;;;;;;12.25;9.50;;;;;19.57;31.52;102154.69;5055450;28;45273;-68
2022/12/18 02:23:26;;;;;;;;;11.25;11.00;;;;;19.56;31.54;102153.00;5055078;28;45346;-68
2022/12/18 02:26:06;;;;;;;;;11.25;11.25;;;;;19.43;31.66;102135.56;5055011;28;45388;-68
2022/12/18 02:28:36;;;;;;;;;14.75;13.00;;;;;19.55;31.77;102157.44;5054686;28;45369;-68
2022/12/18 02:31:04;;;;;;;;;8.75;7.00;;;;;19.56;31.64;102160.91;5055172;28;45422;-68
2022/12/18 02:33:31;;;;;;;;;12.00;8.75;;;;;19.57;31.62;102152.03;5036812;28;45486;-68
2022/12/18 02:35:59;;;;;;;;;11.50;9.75;;;;;19.54;31.91;102147.84;5054916;28;45914;-68
2022/12/18 02:38:25;;;;;;;;;13.50;11.00;;;;;19.58;31.58;102153.69;5054854;28;45404;-68
2022/12/18 02:40:53;;;;;;;;;11.25;10.00;;;;;19.57;31.40;102158.13;5054919;28;45277;-68
2022/12/18 02:43:19;;;;;;;;;14.50;11.50;;;;;19.54;31.66;102147.00;5054809;28;45348;-68
2022/12/18 02:45:49;;;;;;;;;11.00;9.00;;;;;19.58;31.82;102151.91;5054587;28;46372;-68
2022/12/18 02:48:16;;;;;;;;;6.75;6.25;;;;;19.57;31.67;102158.13;5054635;28;45448;-68
2022/12/18 02:50:51;;;;;;;;;10.00;9.25;;;;;19.58;31.48;102159.81;5053688;28;45446;-68
2022/12/18 02:54:07;;;;;;;;;10.75;10.00;;;;;19.58;31.45;102138.69;5054725;28;45239;-68
2022/12/18 02:56:45;;;;;;;;;9.75;9.75;;;;;19.58;31.69;102143.13;4933686;28;46203;-68
2022/12/18 02:59:21;;;;;;;;;11.50;11.50;;;;;19.58;31.44;102143.13;4934245;28;45481;-68
2022/12/18 03:01:55;;;;;;;;;9.00;8.25;;;;;19.57;31.70;102150.22;4936631;28;45474;-68
2022/12/18 03:04:28;;;;;;;;;12.00;11.00;;;;;19.58;31.31;102145.78;4973014;28;45405;-68
2022/12/18 03:06:58;;;;;;;;;11.50;11.50;;;;;19.56;31.34;102153.00;4972717;28;46302;-68
2022/12/18 03:09:34;;;;;;;;;12.00;10.75;;;;;19.56;31.46;102145.91;4972751;28;45463;-68
2022/12/18 03:12:23;;;;;;;;;11.00;10.00;;;;;19.56;31.69;102142.44;4972600;28;45369;-68
2022/12/18 03:15:09;;;;;;;;;8.50;7.50;;;;;19.57;31.46;102138.84;4972824;28;45416;-68
2022/12/18 03:17:36;;;;;;;;;11.25;11.00;;;;;19.56;31.36;102131.88;4972593;28;46300;-68
2022/12/18 03:20:08;;;;;;;;;9.75;9.25;;;;;19.55;31.36;102135.47;4972777;28;45428;-68
2022/12/18 03:22:36;;;;;;;;;11.00;11.00;;;;;19.53;31.64;102129.50;4972761;28;45346;-68
2022/12/18 03:25:07;;;;;;;;;12.00;11.00;;;;;19.54;31.64;102137.31;4972518;28;45321;-68
2022/12/18 03:27:36;;;;;;;;;13.25;11.75;;;;;19.50;31.73;102120.03;4972561;28;46238;-69
2022/12/18 03:30:12;;;;;;;;;8.50;8.50;;;;;19.55;31.72;102109.06;4972571;28;45280;-68
2022/12/18 03:32:54;;;;;;;;;9.25;9.25;;;;;19.53;31.85;102106.56;5029318;28;45397;-68
2022/12/18 03:35:28;;;;;;;;;11.00;9.75;;;;;19.41;31.50;102090.00;5054371;28;45493;-68
2022/12/18 03:37:54;;;;;;;;;14.25;12.00;;;;;19.53;31.74;102108.38;5054120;28;46043;-68
2022/12/18 03:40:29;;;;;;;;;13.50;11.00;;;;;19.54;31.71;102102.97;5053903;28;45419;-69
2022/12/18 03:43:14;;;;;;;;;14.25;12.00;;;;;19.54;31.56;102104.78;5054332;27;45275;-68
2022/12/18 03:45:48;;;;;;;;;14.25;11.25;;;;;19.45;31.41;102093.19;5054128;28;45322;-68
2022/12/18 03:48:23;;;;;;;;;13.75;11.00;;;;;19.52;31.58;102102.25;5053863;28;46354;-68
2022/12/18 03:50:48;;;;;;;;;11.75;10.00;;;;;19.52;31.57;102096.97;5054043;28;45335;-68
2022/12/18 03:53:18;;;;;;;;;10.50;10.25;;;;;19.50;31.59;102086.56;5035848;28;45347;-68
2022/12/18 03:55:45;;;;;;;;;12.75;11.00;;;;;19.47;31.33;102086.81;5035922;28;45483;-68
2022/12/18 03:58:18;;;;;;;;;12.25;10.50;;;;;19.49;31.84;102087.50;5033730;28;46079;-68
2022/12/18 04:00:44;;;;;;;;;12.75;9.75;;;;;19.51;31.67;102088.25;5033338;28;45345;-69
2022/12/18 04:03:10;;;;;;;;;13.00;13.00;;;;;19.51;31.69;102082.97;5046402;28;45372;-68
2022/12/18 04:05:37;;;;;;;;;12.25;10.25;;;;;19.43;31.32;102081.94;5053923;28;45352;-68
2022/12/18 04:08:03;;;;;;;;;11.00;9.75;;;;;19.52;31.47;102094.34;5053822;28;45240;-68
2022/12/18 04:10:29;;;;;;;;;12.25;12.00;;;;;19.50;31.62;102105.03;5053458;28;45267;-68
2022/12/18 04:12:58;;;;;;;;;9.75;9.50;;;;;19.51;31.54;102098.81;5053760;28;45296;-68
2022/12/18 04:15:23;;;;;;;;;11.00;11.00;;;;;19.50;31.52;102083.06;5053846;28;45520;-68
2022/12/18 04:17:50;;;;;;;;;11.50;10.75;;;;;19.49;31.40;102084.88;5053686;28;45371;-68
2022/12/18 04:20:16;;;;;;;;;10.00;10.00;;;;;19.42;31.59;102069.69;5053057;28;45633;-68
2022/12/18 04:22:41;;;;;;;;;12.25;10.25;;;;;19.50;31.39;102088.34;5053904;28;45411;-68
2022/12/18 04:25:07;;;;;;;;;10.00;10.00;;;;;19.49;31.54;102087.50;5053414;28;45450;-68
2022/12/18 04:27:32;;;;;;;;;8.25;7.75;;;;;19.48;31.52;102083.22;5055224;27;46322;-68
2022/12/18 04:29:58;;;;;;;;;9.75;9.75;;;;;19.49;31.55;102091.97;5053572;28;45269;-68
2022/12/18 04:32:23;;;;;;;;;13.50;10.50;;;;;19.49;31.26;102097.25;5053771;28;45341;-68
2022/12/18 04:34:49;;;;;;;;;6.75;6.75;;;;;19.49;31.63;102084.06;5053774;28;45427;-68
2022/12/18 04:37:14;;;;;;;;;8.50;8.25;;;;;19.49;31.24;102095.44;5053478;28;47053;-68
2022/12/18 04:39:39;;;;;;;;;10.75;10.00;;;;;19.35;31.26;102066.75;5053277;28;45461;-68
2022/12/18 04:42:05;;;;;;;;;11.50;9.50;;;;;19.50;31.42;102089.19;5053534;28;45683;-68
2022/12/18 04:44:30;;;;;;;;;11.00;10.50;;;;;19.50;31.51;102091.00;5053736;28;45487;-68
2022/12/18 04:46:55;;;;;;;;;11.75;9.75;;;;;19.52;31.38;102099.63;5053415;28;45333;-68
2022/12/18 04:49:21;;;;;;;;;10.50;9.75;;;;;19.53;31.31;102087.25;5053415;28;45313;-68
2022/12/18 04:51:46;;;;;;;;;11.75;11.25;;;;;19.51;31.25;102088.25;5053058;28;45368;-68
2022/12/18 04:54:12;;;;;;;;;9.00;8.50;;;;;19.50;31.47;102083.91;5048226;28;45499;-68
2022/12/18 04:56:37;;;;;;;;;9.75;8.25;;;;;19.52;31.63;102089.06;5033042;28;46153;-68
2022/12/18 04:59:02;;;;;;;;;11.00;10.25;;;;;19.51;31.35;102093.53;5033222;28;45404;-68
2022/12/18 05:01:28;;;;;;;;;9.75;9.25;;;;;19.49;31.36;102090.16;5033180;28;45361;-68
2022/12/18 05:03:53;;;;;;;;;10.00;9.50;;;;;19.50;31.52;102102.41;5051943;28;45352;-68
2022/12/18 05:06:18;;;;;;;;;14.25;11.50;;;;;19.50;31.26;102093.63;5052720;28;46022;-68
2022/12/18 05:08:44;;;;;;;;;11.75;10.75;;;;;19.37;31.42;102080.66;5053081;28;45839;-68
2022/12/18 05:11:12;;;;;;;;;10.75;10.25;;;;;19.49;31.48;102098.06;5053250;28;45385;-68
2022/12/18 05:13:38;;;;;;;;;13.50;10.75;;;;;19.49;31.34;102087.50;5051885;28;45351;-68
2022/12/18 05:16:04;;;;;;;;;13.25;10.75;;;;;19.39;31.45;102070.81;5052782;28;46060;-69
2022/12/18 05:18:30;;;;;;;;;8.75;8.00;;;;;19.50;31.48;102094.47;5052738;28;45291;-68
2022/12/18 05:20:56;;;;;;;;;10.75;9.25;;;;;19.51;31.31;102095.31;5052752;28;45331;-68
2022/12/18 05:23:23;;;;;;;;;9.00;9.00;;;;;19.50;31.36;102089.19;5053074;28;45293;-68
2022/12/18 05:25:53;;;;;;;;;11.50;11.25;;;;;19.49;31.41;102090.16;5052881;28;47069;-68
2022/12/18 05:28:19;;;;;;;;;14.25;10.50;;;;;19.38;31.37;102080.53;5052640;28;45373;-68
2022/12/18 05:30:52;;;;;;;;;15.25;11.75;;;;;19.48;31.41;102104.34;5052820;28;45298;-68
2022/12/18 05:33:20;;;;;;;;;6.50;5.00;;;;;19.49;31.41;102089.34;5052765;28;45331;-68
2022/12/18 05:35:51;;;;;;;;;9.50;9.25;;;;;19.48;31.46;102082.38;5052183;28;47413;-68
2022/12/18 05:38:17;;;;;;;;;10.00;10.00;;;;;19.48;31.43;102085.88;5052440;27;45519;-68
2022/12/18 05:40:43;;;;;;;;;12.00;9.25;;;;;19.47;31.25;102081.53;5052831;28;45493;-68
2022/12/18 05:43:09;;;;;;;;;8.75;8.75;;;;;19.47;31.28;102083.34;5052651;28;45289;-68
2022/12/18 05:45:38;;;;;;;;;10.50;10.50;;;;;19.47;31.35;102083.34;5052332;28;45340;-68
2022/12/18 05:48:03;;;;;;;;;10.75;9.25;;;;;19.47;31.56;102070.97;5052347;28;45364;-68
2022/12/18 05:50:29;;;;;;;;;13.00;11.25;;;;;19.35;31.61;102050.94;5052170;28;45284;-68
2022/12/18 05:52:54;;;;;;;;;11.00;9.00;;;;;19.47;31.30;102065.69;5052362;28;45239;-68
2022/12/18 05:55:19;;;;;;;;;12.75;9.50;;;;;19.38;31.71;102056.78;5037843;28;46419;-68
2022/12/18 05:57:44;;;;;;;;;15.50;12.25;;;;;19.47;31.54;102083.34;5032285;28;45333;-68
2022/12/18 06:00:10;;;;;;;;;13.00;11.00;;;;;19.46;31.53;102086.97;5032296;28;45289;-68
2022/12/18 06:02:36;;;;;;;;;11.00;10.50;;;;;19.46;31.68;102084.31;5039938;27;45520;-68
2022/12/18 06:05:01;;;;;;;;;12.50;11.50;;;;;19.45;31.56;102085.28;5051712;28;47096;-68
2022/12/18 06:07:27;;;;;;;;;10.75;10.50;;;;;19.40;31.55;102090.97;5052055;28;45271;-68
2022/12/18 06:09:52;;;;;;;;;11.75;9.75;;;;;19.45;31.43;102090.56;5052267;28;45369;-68
2022/12/18 06:12:17;;;;;;;;;10.25;9.00;;;;;19.45;31.29;102090.56;5052121;28;45181;-68
2022/12/18 06:14:43;;;;;;;;;14.00;9.50;;;;;19.45;31.33;102083.47;5051969;28;45258;-68
2022/12/18 06:17:08;;;;;;;;;14.00;11.00;;;;;19.46;31.24;102085.16;5051944;28;45222;-68
2022/12/18 06:19:34;;;;;;;;;13.25;10.00;;;;;19.35;31.45;102070.25;5033611;28;45312;-68
2022/12/18 06:21:59;;;;;;;;;11.75;10.75;;;;;19.45;31.50;102069.44;5052116;28;45220;-68
2022/12/18 06:24:24;;;;;;;;;12.00;10.00;;;;;19.45;31.53;102059.72;5052777;28;46008;-68
2022/12/18 06:26:50;;;;;;;;;13.50;10.50;;;;;19.42;31.51;102048.59;5055246;28;45257;-68
2022/12/18 06:29:15;;;;;;;;;8.00;7.75;;;;;19.45;31.26;102053.59;5055188;28;45313;-68
2022/12/18 06:31:40;;;;;;;;;14.50;10.25;;;;;19.45;31.18;102049.16;5055207;28;45258;-68
2022/12/18 06:34:06;;;;;;;;;12.25;9.50;;;;;19.44;31.58;102042.22;5054543;28;46401;-68
2022/12/18 06:36:31;;;;;;;;;10.50;10.50;;;;;19.45;31.46;102027.22;5054945;28;45437;-68
2022/12/18 06:38:58;;;;;;;;;11.25;11.25;;;;;19.44;31.22;102031.66;5055113;28;45372;-68
2022/12/18 06:41:24;;;;;;;;;12.25;10.75;;;;;19.42;31.19;102015.13;5054957;28;45404;-68
2022/12/18 06:43:49;;;;;;;;;13.50;13.00;;;;;19.46;31.54;102023.63;5054615;28;46995;-68
2022/12/18 06:46:15;;;;;;;;;11.75;10.75;;;;;19.46;31.21;102020.97;5054887;28;45354;-68
2022/12/18 06:48:40;;;;;;;;;9.50;8.75;;;;;19.45;31.10;102025.41;5054586;28;45447;-68
2022/12/18 06:51:06;;;;;;;;;9.25;9.25;;;;;19.36;31.47;102003.28;5054930;28;45416;-68
2022/12/18 06:53:32;;;;;;;;;11.75;9.75;;;;;19.46;31.19;102024.47;5054565;28;45502;-68
2022/12/18 06:56:05;;;;;;;;;10.75;8.25;;;;;19.45;31.29;102025.41;5035005;28;46240;-68
2022/12/18 06:58:31;;;;;;;;;12.25;9.25;;;;;19.46;31.16;102016.53;5034636;28;45316;-68
2022/12/18 07:01:05;;;;;;;;;12.25;10.00;;;;;19.46;31.13;102021.81;5034462;28;45304;-68
2022/12/18 07:03:30;;;;;;;;;11.50;11.50;;;;;19.46;31.17;102018.34;5049580;28;46096;-68
2022/12/18 07:05:56;;;;;;;;;14.25;12.75;;;;;19.46;31.30;102019.19;5054600;28;45354;-68
2022/12/18 07:08:21;;;;;;;;;12.50;10.25;;;;;19.45;31.20;102017.50;5054684;28;45672;-68
2022/12/18 07:10:48;;;;;;;;;13.25;10.25;;;;;19.45;31.23;101995.53;5054738;28;45510;-68
2022/12/18 07:13:14;;;;;;;;;11.00;9.00;;;;;19.44;31.08;101992.06;5054183;27;45389;-68
2022/12/18 07:15:40;;;;;;;;;12.75;11.50;;;;;19.45;31.09;101991.09;5054411;28;45389;-68
2022/12/18 07:18:05;;;;;;;;;13.50;10.75;;;;;19.45;31.21;102006.09;5054140;28;45810;-68
2022/12/18 07:20:30;;;;;;;;;13.25;10.50;;;;;19.44;31.12;102002.63;5036405;28;45544;-68
2022/12/18 07:22:56;;;;;;;;;11.50;11.50;;;;;19.40;31.26;101994.16;5054301;28;45364;-68
2022/12/18 07:25:21;;;;;;;;;9.25;9.25;;;;;19.44;31.00;102005.25;5054417;28;45434;-68
2022/12/18 07:27:46;;;;;;;;;12.25;10.50;;;;;19.42;31.00;101991.38;5054058;28;45395;-68
2022/12/18 07:30:12;;;;;;;;;13.25;10.75;;;;;19.43;31.20;101981.66;5054443;28;45430;-68
2022/12/18 07:32:37;;;;;;;;;9.50;9.50;;;;;19.43;31.34;101982.47;5035802;28;45880;-68
2022/12/18 07:35:03;;;;;;;;;10.00;10.00;;;;;19.43;31.37;101986.91;5054313;28;45315;-68
2022/12/18 07:37:28;;;;;;;;;12.00;9.25;;;;;19.42;30.92;101979.97;5053508;28;45296;-68
2022/12/18 07:39:53;;;;;;;;;12.25;10.75;;;;;19.25;31.33;101950.63;5054517;28;45297;-68
2022/12/18 07:42:31;;;;;;;;;9.75;9.50;;;;;19.41;31.05;101976.50;5053934;28;45290;-68
2022/12/18 07:44:57;;;;;;;;;12.00;11.75;;;;;19.42;31.11;101982.59;5053929;28;45333;-68
2022/12/18 07:47:23;;;;;;;;;9.50;7.25;;;;;19.42;31.06;101982.59;5036031;28;45371;-68
2022/12/18 07:49:48;;;;;;;;;10.50;9.00;;;;;19.41;31.29;101989.72;5054221;28;45323;-68
2022/12/18 07:52:14;;;;;;;;;7.25;7.25;;;;;19.40;31.01;101990.66;5054021;28;46161;-68
2022/12/18 07:54:40;;;;;;;;;10.50;10.25;;;;;19.42;30.92;101982.59;5045081;28;45376;-68
2022/12/18 07:57:05;;;;;;;;;8.00;8.00;;;;;19.42;31.11;101982.59;5034047;28;45384;-68
2022/12/18 07:59:31;;;;;;;;;10.50;8.50;;;;;19.34;31.56;101978.84;5033942;28;45281;-69
2022/12/18 08:01:56;;;;;;;;;11.50;9.75;;;;;19.41;31.28;101995.00;5035658;28;46214;-68
2022/12/18 08:04:21;;;;;;;;;18.00;10.00;;;;;19.40;31.25;101986.22;5053879;28;45270;-69
2022/12/18 08:06:47;;;;;;;;;11.00;9.25;;;;;19.40;31.01;101986.22;5053937;28;45358;-68
2022/12/18 08:09:12;;;;;;;;;10.75;10.00;;;;;19.29;31.26;101981.03;5053993;28;45184;-68
2022/12/18 08:11:37;;;;;;;;;6.25;6.25;;;;;19.41;31.14;101989.72;5053708;28;46675;-68
2022/12/18 08:14:03;;;;;;;;;11.00;8.25;;;;;19.40;31.07;101996.78;5053703;28;45464;-68
2022/12/18 08:16:28;;;;;;;;;10.25;9.25;;;;;19.40;31.22;101983.59;5053616;28;45714;-68
2022/12/18 08:18:54;;;;;;;;;10.50;8.00;;;;;19.28;30.99;101964.38;5053897;28;45406;-68
2022/12/18 08:21:26;;;;;;;;;10.50;8.75;;;;;19.31;30.95;101987.00;5053695;28;45468;-68
2022/12/18 08:23:52;;;;;;;;;8.25;8.25;;;;;19.40;31.13;102015.25;5053735;28;45307;-68
2022/12/18 08:26:18;;;;;;;;;12.75;11.75;;;;;19.39;31.01;102018.00;5053720;28;45371;-68
2022/12/18 08:28:44;;;;;;;;;11.75;9.00;;;;;19.29;31.20;101997.72;5053607;28;45416;-68
2022/12/18 08:31:09;;;;;;;;;9.75;9.75;;;;;19.26;31.11;101995.34;5053024;28;45596;-68
2022/12/18 08:33:37;;;;;;;;;11.25;9.25;;;;;19.38;31.36;102014.56;5053384;28;45478;-68
2022/12/18 08:36:04;;;;;;;;;9.25;8.75;;;;;19.38;31.03;102006.66;5053735;28;45483;-68
2022/12/18 08:38:29;;;;;;;;;9.75;9.25;;;;;19.39;31.39;102008.31;5053531;28;45387;-68
2022/12/18 08:41:06;;;;;;;;;14.00;9.25;;;;;19.40;31.09;102014.41;5053294;28;45409;-68
2022/12/18 08:46:16;;;;;;;;;12.50;9.25;;;;;19.39;30.83;102010.09;5053419;28;45217;-68
2022/12/18 08:48:42;;;;;;;;;12.25;9.50;;;;;19.39;31.17;102013.56;5053332;28;45325;-68
2022/12/18 08:51:09;;;;;;;;;11.75;9.00;;;;;19.36;31.22;101999.84;5053137;28;46194;-68
2022/12/18 08:53:35;;;;;;;;;11.75;9.25;;;;;19.29;31.15;101983.69;5053183;27;45430;-68
2022/12/18 08:56:00;;;;;;;;;10.75;9.00;;;;;19.42;31.14;102001.91;5033227;28;45327;-68
2022/12/18 08:58:25;;;;;;;;;11.50;9.75;;;;;19.43;31.34;102005.41;5032905;28;45312;-68
2022/12/18 09:00:51;;;;;;;;;9.75;8.50;;;;;19.43;31.21;101986.91;5033088;28;45360;-68
2022/12/18 09:03:18;;;;;;;;;10.25;9.75;;;;;19.43;30.85;101993.03;5046378;28;45442;-68
2022/12/18 09:05:45;;;;;;;;;10.75;8.50;;;;;19.43;31.07;102000.13;5053243;28;45377;-69
2022/12/18 09:08:10;;;;;;;;;11.00;9.25;;;;;19.33;31.31;101971.06;5053177;28;45235;-68
2022/12/18 09:10:43;;;;;;;;;8.50;8.25;;;;;19.34;31.08;101970.91;5052084;28;45383;-68
2022/12/18 09:13:10;;;;;;;;;10.50;8.75;;;;;19.41;31.09;101984.44;5052583;28;45322;-68
2022/12/18 09:15:47;;;;;;;;;10.75;9.50;;;;;19.40;30.84;101986.22;5053010;28;45460;-68
2022/12/18 09:18:14;;;;;;;;;12.50;11.50;;;;;19.39;30.88;101981.06;5052919;28;45396;-69
2022/12/18 09:20:39;;;;;;;;;10.75;9.25;;;;;19.34;31.04;101973.56;5052675;28;46056;-68
2022/12/18 09:23:06;;;;;;;;;9.25;9.25;;;;;19.38;31.28;101985.53;5052698;28;45267;-68
2022/12/18 09:25:33;;;;;;;;;10.75;9.25;;;;;19.41;31.13;101992.34;5052940;28;45398;-68
2022/12/18 09:28:03;;;;;;;;;9.00;7.00;;;;;19.40;31.24;101985.38;5052463;28;45419;-68
2022/12/18 09:30:29;;;;;;;;;7.50;7.50;;;;;19.35;31.22;101972.59;5052662;28;46104;-69
2022/12/18 09:32:55;;;;;;;;;9.50;8.25;;;;;19.33;31.04;101960.50;5052541;28;45421;-69
2022/12/18 09:35:21;;;;;;;;;12.50;10.25;;;;;19.39;31.25;101967.88;5052851;28;45453;-69
2022/12/18 09:37:46;;;;;;;;;10.00;9.00;;;;;19.38;31.08;101968.84;5052726;28;45368;-69
2022/12/18 09:40:25;;;;;;;;;10.00;10.00;;;;;19.40;31.17;101977.47;5052397;28;46141;-66
2022/12/18 09:43:00;;;;;;;;;15.00;10.50;;;;;19.39;31.02;101973.16;5052206;28;45398;-68
2022/12/18 09:45:27;;;;;;;;;13.75;9.00;;;;;19.39;30.91;101975.78;5052613;28;45406;-69
2022/12/18 09:47:55;;;;;;;;;8.00;8.00;;;;;19.29;30.87;101958.13;5052693;28;45270;-68
2022/12/18 09:50:35;;;;;;;;;11.00;11.00;;;;;19.38;31.20;101967.06;5052319;28;46140;-68
2022/12/18 09:53:09;;;;;;;;;12.25;9.00;;;;;19.39;31.15;101968.72;5052240;28;45490;-68
2022/12/18 09:55:39;;;;;;;;;10.25;9.75;;;;;19.39;30.97;101967.88;5035783;28;45348;-68
2022/12/18 09:58:10;;;;;;;;;10.50;9.25;;;;;19.38;31.10;101971.50;5031912;28;45549;-68
2022/12/18 10:00:35;;;;;;;;;9.75;9.50;;;;;19.32;30.97;101961.47;5034529;28;45393;-68
2022/12/18 10:03:10;;;;;;;;;9.25;8.75;;;;;19.38;30.99;101976.78;5046304;28;45396;-69
2022/12/18 10:05:48;;;;;;;;;9.00;8.75;;;;;19.37;31.04;101978.56;5055513;28;45313;-68
2022/12/18 10:08:35;;;;;;;;;10.75;7.25;;;;;19.38;30.87;101982.06;5055313;28;46011;-67
2022/12/18 10:11:27;;;;;;;;;10.75;8.50;;;;;19.36;31.26;101979.53;5054697;28;46105;-69
2022/12/18 10:14:01;;;;;;;;;10.25;10.25;;;;;19.37;31.10;101991.78;5055110;28;45349;-69
2022/12/18 10:16:35;;;;;;;;;10.50;10.25;;;;;19.38;31.31;101982.06;5037250;28;45392;-68
2022/12/18 10:19:23;;;;;;;;;10.25;9.00;;;;;19.37;31.22;101975.94;5055149;28;45230;-68
2022/12/18 10:22:00;;;;;;;;;10.50;8.25;;;;;19.37;31.09;101978.56;5054980;28;45470;-69
2022/12/18 10:24:38;;;;;;;;;11.50;10.00;;;;;19.37;30.85;101980.38;5055081;28;45301;-69
2022/12/18 10:27:22;;;;;;;;;10.25;9.75;;;;;19.36;31.29;101982.16;5054806;28;45410;-69
2022/12/18 10:29:47;;;;;;;;;9.25;8.00;;;;;19.36;30.93;101981.34;5055138;28;45408;-69
2022/12/18 10:32:16;;;;;;;;;8.00;6.50;;;;;19.29;30.88;101966.06;5054893;28;45451;-69
2022/12/18 10:34:48;;;;;;;;;8.25;8.00;;;;;19.36;31.20;101978.72;5055046;28;45366;-69
2022/12/18 10:37:18;;;;;;;;;9.75;8.25;;;;;19.35;31.03;101967.31;5055057;28;45366;-68
2022/12/18 10:39:44;;;;;;;;;9.25;9.25;;;;;19.35;31.11;101967.31;5055012;28;45401;-67
2022/12/18 10:42:17;;;;;;;;;10.00;9.00;;;;;19.36;30.99;101973.44;5054510;28;46552;-69
2022/12/18 10:44:42;;;;;;;;;12.50;9.25;;;;;19.33;31.12;101960.50;5054668;28;45368;-68
2022/12/18 10:47:14;;;;;;;;;10.50;9.50;;;;;19.34;30.72;101965.63;5054875;27;45356;-68
2022/12/18 10:49:48;;;;;;;;;13.50;10.25;;;;;19.38;30.92;101961.78;5054942;28;45296;-68
2022/12/18 10:52:22;;;;;;;;;6.00;3.00;;;;;19.40;31.09;101978.31;5054645;28;46967;-68
2022/12/18 10:55:03;;;;;;;;;8.75;8.75;;;;;19.41;30.92;101979.16;5044186;28;45246;-68
2022/12/18 10:57:36;;;;;;;;;10.25;8.75;;;;;19.40;31.15;101965.13;5034677;28;45415;-68
2022/12/18 11:00:31;;;;;;;;;11.00;9.75;;;;;19.25;30.82;101935.63;5034721;28;45270;-68
2022/12/18 11:02:57;;;;;;;;;7.25;6.25;;;;;19.38;30.99;101950.38;5053468;28;46918;-68
2022/12/18 11:05:29;;;;;;;;;10.50;10.00;;;;;19.41;31.19;101955.41;5054603;28;45396;-68
2022/12/18 11:07:56;;;;;;;;;8.25;7.75;;;;;19.38;30.87;101950.38;5054777;28;45304;-68
2022/12/18 11:10:30;;;;;;;;;9.00;8.50;;;;;19.42;31.17;101948.28;5053548;28;45571;-68
2022/12/18 11:12:56;;;;;;;;;9.75;8.00;;;;;19.41;31.20;101947.47;5053901;28;46492;-67
2022/12/18 11:15:27;;;;;;;;;7.50;6.75;;;;;19.42;30.83;101950.94;5054486;28;45309;-68
2022/12/18 11:17:53;;;;;;;;;10.25;8.50;;;;;19.37;31.00;101946.91;5054768;28;45254;-68
2022/12/18 11:20:32;;;;;;;;;9.25;8.50;;;;;19.42;30.90;101943.00;5054383;28;45228;-69
2022/12/18 11:23:03;;;;;;;;;6.50;6.25;;;;;19.40;31.30;101938.72;5054363;28;45565;-68
2022/12/18 11:25:30;;;;;;;;;11.25;9.75;;;;;19.33;31.02;101923.56;5053950;28;45224;-68